createdAt,value
2018-09-15T00:00:58.838Z,101814.56
2018-09-15T00:02:03.010Z,101811.03
2018-09-15T00:03:07.462Z,101814.36
2018-09-15T00:04:11.668Z,101816.19
2018-09-15T00:05:15.822Z,101819.02
2018-09-15T00:06:20.011Z,101817.31
2018-09-15T00:07:24.167Z,101814.76
2018-09-15T00:08:28.693Z,101813.57
2018-09-15T00:09:32.880Z,101813.69
2018-09-15T00:10:37.069Z,101813.84
2018-09-15T00:11:41.235Z,101816.53
2018-09-15T00:12:45.434Z,101813.97
2018-09-15T00:13:49.924Z,101814.45
2018-09-15T00:14:54.079Z,101813.27
2018-09-15T00:15:58.483Z,101824.48
2018-09-15T00:17:02.745Z,101817.41
2018-09-15T00:18:09.851Z,101817.08
2018-09-15T00:19:14.184Z,101820.37
2018-09-15T00:20:18.384Z,101813.66
2018-09-15T00:21:22.625Z,101815.01
2018-09-15T00:22:26.768Z,101815.49
2018-09-15T00:23:31.051Z,101814.64
2018-09-15T00:24:35.485Z,101817.47
2018-09-15T00:25:40.355Z,101813.58
2018-09-15T00:26:44.543Z,101814.91
2018-09-15T00:27:48.687Z,101815.92
2018-09-15T00:28:52.854Z,101818.72
2018-09-15T00:29:57.053Z,101808.64
2018-09-15T00:31:01.235Z,101814.86
2018-09-15T00:32:05.417Z,101813.15
2018-09-15T00:33:09.601Z,101815.12
2018-09-15T00:34:13.814Z,101812.45
2018-09-15T00:35:18.032Z,101816.95
2018-09-15T00:36:22.228Z,101816.22
2018-09-15T00:37:26.639Z,101819.75
2018-09-15T00:38:31.064Z,101818.20
2018-09-15T00:39:35.252Z,101827.21
2018-09-15T00:40:39.455Z,101821.52
2018-09-15T00:41:43.803Z,101822.00
2018-09-15T00:42:48.059Z,101823.34
2018-09-15T00:43:52.248Z,101819.93
2018-09-15T00:44:56.583Z,101824.80
2018-09-15T00:46:00.746Z,101826.63
2018-09-15T00:47:04.994Z,101825.29
2018-09-15T00:48:09.358Z,101820.94
2018-09-15T00:49:13.527Z,101830.80
2018-09-15T00:50:17.713Z,101825.56
2018-09-15T00:51:21.885Z,101828.72
2018-09-15T00:52:26.038Z,101826.20
2018-09-15T00:53:30.175Z,101831.55
2018-09-15T00:54:34.634Z,101827.17
2018-09-15T00:55:38.762Z,101831.83
2018-09-15T00:56:42.946Z,101825.12
2018-09-15T00:57:47.149Z,101831.83
2018-09-15T00:58:51.331Z,101832.31
2018-09-15T00:59:55.481Z,101826.73
2018-09-15T01:00:59.694Z,101827.71
2018-09-15T01:02:03.877Z,101827.71
2018-09-15T01:03:08.274Z,101830.17
2018-09-15T01:04:12.465Z,101832.36
2018-09-15T01:05:18.259Z,101824.45
2018-09-15T01:06:22.431Z,101827.61
2018-09-15T01:07:26.610Z,101825.94
2018-09-15T01:08:30.763Z,101830.92
2018-09-15T01:09:34.973Z,101827.55
2018-09-15T01:10:39.159Z,101828.03
2018-09-15T01:11:43.349Z,101827.18
2018-09-15T01:12:47.532Z,101830.83
2018-09-15T01:13:51.839Z,101822.42
2018-09-15T01:14:55.918Z,101820.75
2018-09-15T01:16:04.437Z,101824.77
2018-09-15T01:17:08.615Z,101824.41
2018-09-15T01:18:12.782Z,101828.42
2018-09-15T01:19:16.942Z,101825.73
2018-09-15T01:20:21.158Z,101826.01
2018-09-15T01:21:25.458Z,101829.66
2018-09-15T01:22:29.663Z,101824.30
2018-09-15T01:23:34.316Z,101823.45
2018-09-15T01:24:38.654Z,101829.32
2018-09-15T01:25:42.793Z,101825.91
2018-09-15T01:26:46.971Z,101824.56
2018-09-15T01:27:51.313Z,101829.59
2018-09-15T01:28:55.648Z,101828.85
2018-09-15T01:29:59.957Z,101831.16
2018-09-15T01:31:04.099Z,101824.13
2018-09-15T01:32:08.276Z,101829.48
2018-09-15T01:33:12.438Z,101833.13
2018-09-15T01:34:16.681Z,101833.62
2018-09-15T01:35:20.785Z,101827.41
2018-09-15T01:36:24.982Z,101825.25
2018-09-15T01:37:29.118Z,101828.41
2018-09-15T01:38:33.292Z,101827.08
2018-09-15T01:39:37.788Z,101833.77
2018-09-15T01:40:42.008Z,101828.05
2018-09-15T01:41:46.108Z,101831.36
2018-09-15T01:42:50.268Z,101824.66
2018-09-15T01:43:54.435Z,101827.45
2018-09-15T01:44:58.828Z,101822.59
2018-09-15T01:46:03.075Z,101823.59
2018-09-15T01:47:07.259Z,101824.56
2018-09-15T01:48:11.442Z,101821.89
2018-09-15T01:49:15.562Z,101826.02
2018-09-15T01:50:19.958Z,101827.84
2018-09-15T01:51:24.290Z,101827.13
2018-09-15T01:52:28.491Z,101824.94
2018-09-15T01:53:32.635Z,101829.44
2018-09-15T01:54:36.778Z,101829.56
2018-09-15T01:55:41.014Z,101829.19
2018-09-15T01:56:45.103Z,101827.36
2018-09-15T01:57:49.599Z,101824.69
2018-09-15T01:58:53.864Z,101826.03
2018-09-15T01:59:58.112Z,101822.50
2018-09-15T02:01:02.314Z,101827.36
2018-09-15T02:02:06.507Z,101817.63
2018-09-15T02:03:10.660Z,101818.97
2018-09-15T02:04:14.829Z,101820.30
2018-09-15T02:05:18.962Z,101815.95
2018-09-15T02:06:23.147Z,101815.58
2018-09-15T02:07:27.341Z,101814.25
2018-09-15T02:08:31.491Z,101810.23
2018-09-15T02:09:35.751Z,101807.92
2018-09-15T02:10:39.957Z,101816.44
2018-09-15T02:11:44.811Z,101809.75
2018-09-15T02:12:48.958Z,101814.10
2018-09-15T02:13:53.102Z,101810.94
2018-09-15T02:14:57.307Z,101806.92
2018-09-15T02:16:01.450Z,101816.66
2018-09-15T02:17:05.634Z,101815.72
2018-09-15T02:18:09.777Z,101813.90
2018-09-15T02:19:14.008Z,101817.28
2018-09-15T02:20:18.190Z,101813.97
2018-09-15T02:21:22.417Z,101815.19
2018-09-15T02:22:26.639Z,101816.75
2018-09-15T02:23:30.758Z,101816.97
2018-09-15T02:24:34.964Z,101812.69
2018-09-15T02:25:39.720Z,101817.44
2018-09-15T02:26:44.028Z,101820.33
2018-09-15T02:27:48.262Z,101817.17
2018-09-15T02:28:52.469Z,101818.24
2018-09-15T02:29:56.672Z,101819.58
2018-09-15T02:31:00.981Z,101819.95
2018-09-15T02:32:05.288Z,101820.66
2018-09-15T02:33:09.445Z,101821.02
2018-09-15T02:34:13.591Z,101822.36
2018-09-15T02:35:17.796Z,101820.39
2018-09-15T02:36:21.982Z,101822.09
2018-09-15T02:37:26.139Z,101817.59
2018-09-15T02:38:30.318Z,101820.48
2018-09-15T02:39:34.675Z,101828.03
2018-09-15T02:40:38.833Z,101829.70
2018-09-15T02:41:43.004Z,101831.30
2018-09-15T02:42:47.264Z,101828.47
2018-09-15T02:43:51.566Z,101831.02
2018-09-15T02:44:55.723Z,101834.03
2018-09-15T02:45:59.955Z,101830.39
2018-09-15T02:47:04.161Z,101832.09
2018-09-15T02:48:08.290Z,101826.37
2018-09-15T02:49:12.469Z,101826.37
2018-09-15T02:50:16.626Z,101831.24
2018-09-15T02:51:20.799Z,101836.11
2018-09-15T02:52:24.952Z,101841.47
2018-09-15T02:53:29.285Z,101842.17
2018-09-15T02:54:33.475Z,101834.63
2018-09-15T02:55:37.643Z,101839.12
2018-09-15T02:56:41.929Z,101838.16
2018-09-15T02:57:46.243Z,101841.20
2018-09-15T02:58:50.434Z,101838.89
2018-09-15T02:59:54.606Z,101839.38
2018-09-15T03:00:58.840Z,101842.54
2018-09-15T03:02:02.999Z,101843.52
2018-09-15T03:03:07.385Z,101850.20
2018-09-15T03:04:11.494Z,101840.47
2018-09-15T03:05:15.803Z,101848.50
2018-09-15T03:06:20.000Z,101846.67
2018-09-15T03:07:24.137Z,101847.16
2018-09-15T03:08:28.468Z,101842.17
2018-09-15T03:09:32.686Z,101843.87
2018-09-15T03:10:36.876Z,101844.24
2018-09-15T03:11:41.176Z,101840.23
2018-09-15T03:12:45.342Z,101845.06
2018-09-15T03:13:49.504Z,101846.41
2018-09-15T03:14:53.687Z,101837.88
2018-09-15T03:15:57.918Z,101840.56
2018-09-15T03:17:02.113Z,101844.58
2018-09-15T03:18:06.395Z,101843.23
2018-09-15T03:19:10.543Z,101845.44
2018-09-15T03:20:14.702Z,101841.41
2018-09-15T03:21:18.914Z,101848.97
2018-09-15T03:22:23.918Z,101845.92
2018-09-15T03:23:28.263Z,101839.22
2018-09-15T03:24:32.437Z,101840.56
2018-09-15T03:25:37.020Z,101844.58
2018-09-15T03:26:41.349Z,101843.61
2018-09-15T03:27:45.518Z,101844.80
2018-09-15T03:28:49.711Z,101835.42
2018-09-15T03:29:54.046Z,101840.30
2018-09-15T03:30:58.204Z,101837.13
2018-09-15T03:32:02.394Z,101843.83
2018-09-15T03:33:06.823Z,101847.47
2018-09-15T03:34:10.962Z,101839.59
2018-09-15T03:35:15.137Z,101844.46
2018-09-15T03:36:19.274Z,101842.12
2018-09-15T03:37:23.438Z,101838.10
2018-09-15T03:38:27.608Z,101842.97
2018-09-15T03:39:31.775Z,101838.10
2018-09-15T03:40:35.918Z,101847.99
2018-09-15T03:41:40.413Z,101843.13
2018-09-15T03:42:44.605Z,101847.14
2018-09-15T03:43:49.033Z,101841.41
2018-09-15T03:44:53.190Z,101839.22
2018-09-15T03:45:57.339Z,101841.78
2018-09-15T03:47:01.470Z,101844.09
2018-09-15T03:48:05.663Z,101841.91
2018-09-15T03:49:09.852Z,101845.92
2018-09-15T03:50:14.209Z,101844.09
2018-09-15T03:51:18.371Z,101847.26
2018-09-15T03:52:22.621Z,101846.41
2018-09-15T03:53:26.999Z,101846.77
2018-09-15T03:54:31.191Z,101854.33
2018-09-15T03:55:35.543Z,101850.94
2018-09-15T03:56:39.682Z,101853.63
2018-09-15T03:57:43.920Z,101853.10
2018-09-15T03:58:48.123Z,101851.77
2018-09-15T03:59:52.312Z,101853.95
2018-09-15T04:00:56.437Z,101852.62
2018-09-15T04:02:00.619Z,101848.59
2018-09-15T04:03:04.783Z,101857.00
2018-09-15T04:04:09.334Z,101859.68
2018-09-15T04:05:13.455Z,101856.78
2018-09-15T04:06:17.615Z,101854.96
2018-09-15T04:07:21.758Z,101856.30
2018-09-15T04:08:26.006Z,101856.30
2018-09-15T04:09:30.183Z,101861.99
2018-09-15T04:10:34.330Z,101861.14
2018-09-15T04:11:38.580Z,101861.99
2018-09-15T04:12:42.759Z,101856.63
2018-09-15T04:13:46.896Z,101863.33
2018-09-15T04:14:51.079Z,101857.64
2018-09-15T04:15:55.241Z,101861.99
2018-09-15T04:16:59.440Z,101863.70
2018-09-15T04:18:03.601Z,101865.89
2018-09-15T04:19:07.892Z,101865.41
2018-09-15T04:20:12.159Z,101864.06
2018-09-15T04:21:16.468Z,101864.06
2018-09-15T04:22:20.640Z,101871.25
2018-09-15T04:23:24.863Z,101867.72
2018-09-15T04:24:28.995Z,101866.01
2018-09-15T04:25:33.223Z,101864.82
2018-09-15T04:26:37.562Z,101865.67
2018-09-15T04:27:42.116Z,101868.84
2018-09-15T04:28:46.246Z,101869.81
2018-09-15T04:29:50.403Z,101860.06
2018-09-15T04:30:54.599Z,101862.75
2018-09-15T04:31:58.762Z,101870.45
2018-09-15T04:33:02.901Z,101871.42
2018-09-15T04:34:07.129Z,101878.59
2018-09-15T04:35:11.266Z,101873.73
2018-09-15T04:36:15.540Z,101877.26
2018-09-15T04:37:19.671Z,101875.92
2018-09-15T04:38:23.834Z,101878.23
2018-09-15T04:39:27.998Z,101880.91
2018-09-15T04:40:32.204Z,101883.09
2018-09-15T04:41:36.387Z,101877.41
2018-09-15T04:42:40.522Z,101881.91
2018-09-15T04:43:44.649Z,101881.91
2018-09-15T04:44:48.807Z,101881.91
2018-09-15T04:45:52.954Z,101882.77
2018-09-15T04:46:57.126Z,101885.93
2018-09-15T04:48:01.291Z,101883.09
2018-09-15T04:49:05.706Z,101880.57
2018-09-15T04:50:09.842Z,101880.57
2018-09-15T04:51:14.090Z,101875.22
2018-09-15T04:52:18.265Z,101875.33
2018-09-15T04:53:22.398Z,101876.30
2018-09-15T04:54:26.595Z,101880.32
2018-09-15T04:55:30.823Z,101878.64
2018-09-15T04:56:34.946Z,101877.42
2018-09-15T04:57:39.233Z,101880.10
2018-09-15T04:58:43.411Z,101878.55
2018-09-15T04:59:47.540Z,101881.00
2018-09-15T05:00:51.689Z,101879.92
2018-09-15T05:01:55.843Z,101881.87
2018-09-15T05:03:00.027Z,101885.55
2018-09-15T05:04:04.179Z,101889.20
2018-09-15T05:05:08.367Z,101881.80
2018-09-15T05:06:12.567Z,101885.08
2018-09-15T05:07:16.772Z,101885.70
2018-09-15T05:08:20.979Z,101885.82
2018-09-15T05:09:25.102Z,101890.33
2018-09-15T05:10:29.283Z,101894.60
2018-09-15T05:11:33.423Z,101898.54
2018-09-15T05:12:37.820Z,101896.47
2018-09-15T05:13:41.753Z,101906.46
2018-09-15T05:14:46.127Z,101904.05
2018-09-15T05:15:50.259Z,101900.27
2018-09-15T05:16:54.382Z,101897.84
2018-09-15T05:17:58.578Z,101901.48
2018-09-15T05:19:02.732Z,101898.92
2018-09-15T05:20:06.871Z,101901.60
2018-09-15T05:21:10.996Z,101896.39
2018-09-15T05:22:15.130Z,101901.86
2018-09-15T05:23:19.266Z,101897.84
2018-09-15T05:24:23.467Z,101897.99
2018-09-15T05:25:27.651Z,101898.11
2018-09-15T05:26:32.842Z,101899.22
2018-09-15T05:27:37.006Z,101898.99
2018-09-15T05:28:41.407Z,101897.91
2018-09-15T05:29:45.631Z,101898.88
2018-09-15T05:30:49.787Z,101898.03
2018-09-15T05:31:54.004Z,101898.66
2018-09-15T05:32:58.351Z,101903.64
2018-09-15T05:34:02.562Z,101900.11
2018-09-15T05:35:06.798Z,101901.11
2018-09-15T05:36:10.972Z,101902.07
2018-09-15T05:37:15.154Z,101902.19
2018-09-15T05:38:19.342Z,101907.53
2018-09-15T05:39:23.600Z,101901.33
2018-09-15T05:40:27.801Z,101901.95
2018-09-15T05:41:32.156Z,101906.45
2018-09-15T05:42:36.462Z,101901.95
2018-09-15T05:43:40.696Z,101906.45
2018-09-15T05:44:45.179Z,101905.73
2018-09-15T05:45:49.432Z,101910.72
2018-09-15T05:46:53.598Z,101910.01
2018-09-15T05:47:57.807Z,101912.69
2018-09-15T05:49:02.164Z,101916.80
2018-09-15T05:50:06.931Z,101917.44
2018-09-15T05:51:11.127Z,101920.59
2018-09-15T05:52:15.506Z,101920.59
2018-09-15T05:53:19.664Z,101920.59
2018-09-15T05:54:23.847Z,101923.64
2018-09-15T05:55:28.021Z,101931.52
2018-09-15T05:56:32.206Z,101935.42
2018-09-15T05:57:36.391Z,101927.73
2018-09-15T05:58:40.583Z,101930.67
2018-09-15T05:59:44.974Z,101935.02
2018-09-15T06:00:49.431Z,101933.09
2018-09-15T06:01:53.643Z,101938.30
2018-09-15T06:02:57.915Z,101936.84
2018-09-15T06:04:02.323Z,101939.89
2018-09-15T06:05:06.612Z,101940.23
2018-09-15T06:06:11.058Z,101940.98
2018-09-15T06:07:15.329Z,101942.80
2018-09-15T06:08:19.606Z,101947.52
2018-09-15T06:09:23.762Z,101945.70
2018-09-15T06:10:27.915Z,101953.95
2018-09-15T06:11:32.079Z,101950.80
2018-09-15T06:12:36.263Z,101952.36
2018-09-15T06:13:40.453Z,101958.31
2018-09-15T06:14:44.642Z,101954.52
2018-09-15T06:15:48.783Z,101956.23
2018-09-15T06:16:52.955Z,101956.13
2018-09-15T06:17:57.175Z,101963.41
2018-09-15T06:19:01.550Z,101958.40
2018-09-15T06:20:06.055Z,101961.30
2018-09-15T06:21:10.254Z,101958.52
2018-09-15T06:22:14.395Z,101952.56
2018-09-15T06:23:18.611Z,101953.30
2018-09-15T06:24:22.760Z,101963.38
2018-09-15T06:25:26.947Z,101959.37
2018-09-15T06:26:31.754Z,101962.41
2018-09-15T06:27:35.945Z,101972.16
2018-09-15T06:28:40.151Z,101968.48
2018-09-15T06:29:44.610Z,101968.84
2018-09-15T06:30:49.072Z,101971.53
2018-09-15T06:31:53.255Z,101973.72
2018-09-15T06:32:57.399Z,101973.46
2018-09-15T06:34:01.874Z,101974.80
2018-09-15T06:35:06.063Z,101974.31
2018-09-15T06:36:10.248Z,101974.31
2018-09-15T06:37:14.405Z,101968.96
2018-09-15T06:38:18.522Z,101977.48
2018-09-15T06:39:22.765Z,101976.99
2018-09-15T06:40:26.925Z,101969.30
2018-09-15T06:41:31.086Z,101967.47
2018-09-15T06:42:35.293Z,101978.67
2018-09-15T06:43:39.453Z,101979.52
2018-09-15T06:44:43.843Z,101977.22
2018-09-15T06:45:48.166Z,101975.02
2018-09-15T06:46:52.248Z,101966.99
2018-09-15T06:47:56.563Z,101971.86
2018-09-15T06:49:00.806Z,101972.34
2018-09-15T06:50:05.143Z,101976.36
2018-09-15T06:51:09.796Z,101974.91
2018-09-15T06:52:14.199Z,101964.54
2018-09-15T06:53:18.328Z,101965.87
2018-09-15T06:54:22.609Z,101968.44
2018-09-15T06:55:26.776Z,101973.31
2018-09-15T06:56:30.979Z,101977.19
2018-09-15T06:57:35.177Z,101978.89
2018-09-15T06:58:39.435Z,101978.89
2018-09-15T06:59:43.622Z,101979.27
2018-09-15T07:00:47.882Z,101981.42
2018-09-15T07:01:52.013Z,101986.66
2018-09-15T07:02:56.380Z,101993.73
2018-09-15T07:04:00.559Z,102000.28
2018-09-15T07:05:04.866Z,101997.11
2018-09-15T07:06:09.274Z,101998.83
2018-09-15T07:07:13.432Z,101997.34
2018-09-15T07:08:17.788Z,101996.86
2018-09-15T07:09:21.933Z,102005.27
2018-09-15T07:10:26.071Z,102003.77
2018-09-15T07:11:30.254Z,102000.98
2018-09-15T07:12:34.390Z,102007.91
2018-09-15T07:13:38.562Z,102007.42
2018-09-15T07:14:42.686Z,102010.80
2018-09-15T07:15:46.839Z,102015.19
2018-09-15T07:16:51.005Z,102019.92
2018-09-15T07:17:55.142Z,102022.48
2018-09-15T07:18:59.324Z,102026.73
2018-09-15T07:20:03.575Z,102023.19
2018-09-15T07:21:07.767Z,102021.33
2018-09-15T07:22:12.056Z,102021.50
2018-09-15T07:23:16.251Z,102020.37
2018-09-15T07:24:20.382Z,102020.22
2018-09-15T07:25:24.762Z,102029.18
2018-09-15T07:26:28.910Z,102029.06
2018-09-15T07:27:33.135Z,102033.79
2018-09-15T07:28:37.298Z,102028.42
2018-09-15T07:29:41.591Z,102023.80
2018-09-15T07:30:46.128Z,102021.95
2018-09-15T07:31:50.422Z,102025.48
2018-09-15T07:32:54.539Z,102028.90
2018-09-15T07:33:58.778Z,102029.87
2018-09-15T07:35:03.121Z,102029.87
2018-09-15T07:36:07.297Z,102032.06
2018-09-15T07:37:11.512Z,102027.19
2018-09-15T07:38:15.723Z,102029.87
2018-09-15T07:39:19.967Z,102038.03
2018-09-15T07:40:24.147Z,102032.81
2018-09-15T07:41:28.365Z,102032.45
2018-09-15T07:42:32.524Z,102038.81
2018-09-15T07:43:36.751Z,102042.84
2018-09-15T07:44:41.008Z,102037.47
2018-09-15T07:45:45.391Z,102040.98
2018-09-15T07:46:49.583Z,102043.54
2018-09-15T07:47:54.300Z,102039.15
2018-09-15T07:48:58.503Z,102046.59
2018-09-15T07:50:02.699Z,102048.75
2018-09-15T07:51:07.124Z,102048.75
2018-09-15T07:52:11.340Z,102049.49
2018-09-15T07:53:15.515Z,102053.03
2018-09-15T07:54:19.678Z,102051.05
2018-09-15T07:55:23.824Z,102052.77
2018-09-15T07:56:27.990Z,102054.35
2018-09-15T07:57:32.235Z,102052.89
2018-09-15T07:58:36.319Z,102053.23
2018-09-15T07:59:40.505Z,102044.59
2018-09-15T08:00:44.689Z,102045.66
2018-09-15T08:01:48.958Z,102047.70
2018-09-15T08:02:53.099Z,102047.44
2018-09-15T08:03:57.479Z,102045.22
2018-09-15T08:05:01.732Z,102042.61
2018-09-15T08:06:06.096Z,102044.41
2018-09-15T08:07:10.245Z,102047.41
2018-09-15T08:08:14.606Z,102046.38
2018-09-15T08:09:18.763Z,102042.51
2018-09-15T08:10:23.016Z,102041.84
2018-09-15T08:11:27.158Z,102046.87
2018-09-15T08:12:31.599Z,102043.23
2018-09-15T08:13:36.041Z,102041.92
2018-09-15T08:14:40.219Z,102043.77
2018-09-15T08:15:44.453Z,102047.36
2018-09-15T08:16:48.615Z,102046.18
2018-09-15T08:17:53.068Z,102048.46
2018-09-15T08:18:57.468Z,102042.94
2018-09-15T08:20:01.681Z,102050.14
2018-09-15T08:21:05.905Z,102052.49
2018-09-15T08:22:10.079Z,102057.34
2018-09-15T08:23:14.255Z,102061.89
2018-09-15T08:24:18.559Z,102053.95
2018-09-15T08:25:22.811Z,102054.32
2018-09-15T08:26:27.035Z,102055.17
2018-09-15T08:27:31.535Z,102063.56
2018-09-15T08:28:35.732Z,102062.59
2018-09-15T08:29:40.142Z,102064.42
2018-09-15T08:30:44.291Z,102062.09
2018-09-15T08:31:49.246Z,102064.87
2018-09-15T08:32:53.380Z,102060.19
2018-09-15T08:33:57.592Z,102067.32
2018-09-15T08:35:01.993Z,102062.19
2018-09-15T08:36:06.175Z,102068.47
2018-09-15T08:37:10.355Z,102066.84
2018-09-15T08:38:14.553Z,102061.91
2018-09-15T08:39:18.758Z,102065.98
2018-09-15T08:40:23.026Z,102068.05
2018-09-15T08:41:27.292Z,102077.46
2018-09-15T08:42:31.525Z,102070.09
2018-09-15T08:43:35.720Z,102073.51
2018-09-15T08:44:39.894Z,102069.68
2018-09-15T08:45:46.482Z,102076.11
2018-09-15T08:46:50.783Z,102071.10
2018-09-15T08:47:54.994Z,102070.45
2018-09-15T08:48:59.150Z,102075.34
2018-09-15T08:50:03.424Z,102073.99
2018-09-15T08:51:07.587Z,102075.17
2018-09-15T08:52:11.747Z,102081.77
2018-09-15T08:53:16.149Z,102071.58
2018-09-15T08:54:20.342Z,102077.03
2018-09-15T08:55:24.488Z,102076.38
2018-09-15T08:56:28.845Z,102083.31
2018-09-15T08:57:33.097Z,102078.42
2018-09-15T08:58:38.047Z,102078.78
2018-09-15T08:59:42.222Z,102080.00
2018-09-15T09:00:46.597Z,102075.31
2018-09-15T09:01:50.750Z,102083.74
2018-09-15T09:02:54.934Z,102077.75
2018-09-15T09:03:59.155Z,102080.51
2018-09-15T09:05:03.318Z,102074.84
2018-09-15T09:06:07.515Z,102081.97
2018-09-15T09:07:11.914Z,102078.98
2018-09-15T09:08:16.104Z,102085.09
2018-09-15T09:09:20.332Z,102079.78
2018-09-15T09:10:24.587Z,102077.84
2018-09-15T09:11:28.749Z,102077.62
2018-09-15T09:12:32.931Z,102077.66
2018-09-15T09:13:37.087Z,102075.19
2018-09-15T09:14:41.364Z,102071.68
2018-09-15T09:15:45.512Z,102075.09
2018-09-15T09:16:49.776Z,102077.98
2018-09-15T09:17:53.911Z,102079.88
2018-09-15T09:18:58.252Z,102082.97
2018-09-15T09:20:02.537Z,102078.99
2018-09-15T09:21:06.615Z,102079.12
2018-09-15T09:22:10.774Z,102076.52
2018-09-15T09:23:14.947Z,102078.86
2018-09-15T09:24:19.176Z,102072.02
2018-09-15T09:25:23.431Z,102082.49
2018-09-15T09:26:27.660Z,102080.79
2018-09-15T09:27:31.814Z,102084.14
2018-09-15T09:28:35.963Z,102083.95
2018-09-15T09:29:40.118Z,102079.72
2018-09-15T09:30:44.419Z,102087.34
2018-09-15T09:31:48.679Z,102080.22
2018-09-15T09:32:53.238Z,102086.53
2018-09-15T09:33:57.428Z,102093.50
2018-09-15T09:35:01.696Z,102087.37
2018-09-15T09:36:06.053Z,102093.34
2018-09-15T09:37:10.319Z,102092.59
2018-09-15T09:38:14.501Z,102096.48
2018-09-15T09:39:18.666Z,102095.41
2018-09-15T09:40:22.824Z,102102.35
2018-09-15T09:41:27.098Z,102092.43
2018-09-15T09:42:31.218Z,102097.34
2018-09-15T09:43:35.375Z,102095.22
2018-09-15T09:44:39.506Z,102094.79
2018-09-15T09:45:43.894Z,102099.80
2018-09-15T09:46:48.136Z,102095.41
2018-09-15T09:47:52.281Z,102096.83
2018-09-15T09:48:56.411Z,102093.52
2018-09-15T09:50:00.551Z,102089.43
2018-09-15T09:51:04.919Z,102088.20
2018-09-15T09:52:09.078Z,102093.92
2018-09-15T09:53:13.206Z,102093.89
2018-09-15T09:54:17.456Z,102091.67
2018-09-15T09:55:21.614Z,102090.95
2018-09-15T09:56:25.842Z,102092.06
2018-09-15T09:57:30.187Z,102094.66
2018-09-15T09:58:34.327Z,102094.84
2018-09-15T09:59:38.470Z,102097.54
2018-09-15T10:00:48.070Z,102090.48
2018-09-15T10:01:57.453Z,102089.77
2018-09-15T10:03:01.627Z,102097.15
2018-09-15T10:04:06.070Z,102098.30
2018-09-15T10:05:10.375Z,102093.20
2018-09-15T10:06:14.531Z,102099.70
2018-09-15T10:07:18.885Z,102095.34
2018-09-15T10:08:23.026Z,102093.47
2018-09-15T10:09:27.150Z,102090.78
2018-09-15T10:10:31.319Z,102092.48
2018-09-15T10:11:35.503Z,102092.00
2018-09-15T10:12:39.617Z,102087.27
2018-09-15T10:13:43.829Z,102096.33
2018-09-15T10:14:47.970Z,102089.60
2018-09-15T10:15:52.147Z,102090.09
2018-09-15T10:16:56.238Z,102088.05
2018-09-15T10:18:00.547Z,102105.32
2018-09-15T10:19:04.706Z,102110.80
2018-09-15T10:20:09.041Z,102109.61
2018-09-15T10:21:13.455Z,102101.84
2018-09-15T10:22:17.595Z,102104.16
2018-09-15T10:23:21.762Z,102103.51
2018-09-15T10:24:25.962Z,102098.98
2018-09-15T10:25:30.095Z,102098.00
2018-09-15T10:26:34.282Z,102095.51
2018-09-15T10:27:38.398Z,102093.87
2018-09-15T10:28:42.579Z,102095.28
2018-09-15T10:29:46.842Z,102089.96
2018-09-15T10:30:51.009Z,102092.06
2018-09-15T10:31:55.631Z,102091.11
2018-09-15T10:32:59.903Z,102089.16
2018-09-15T10:34:04.038Z,102087.25
2018-09-15T10:35:08.322Z,102084.76
2018-09-15T10:36:12.441Z,102083.97
2018-09-15T10:37:16.598Z,102089.18
2018-09-15T10:38:20.964Z,102084.29
2018-09-15T10:39:25.678Z,102092.46
2018-09-15T10:40:29.275Z,102088.48
2018-09-15T10:41:33.390Z,102091.37
2018-09-15T10:42:37.656Z,102087.87
2018-09-15T10:43:41.810Z,102097.72
2018-09-15T10:44:45.964Z,102088.31
2018-09-15T10:45:50.236Z,102087.52
2018-09-15T10:46:54.374Z,102094.45
2018-09-15T10:47:58.547Z,102094.17
2018-09-15T10:49:03.060Z,102094.37
2018-09-15T10:50:07.231Z,102097.61
2018-09-15T10:51:11.501Z,102098.30
2018-09-15T10:52:15.811Z,102098.16
2018-09-15T10:53:20.079Z,102091.61
2018-09-15T10:54:24.289Z,102087.45
2018-09-15T10:55:28.420Z,102086.16
2018-09-15T10:56:32.833Z,102080.64
2018-09-15T10:57:36.991Z,102078.66
2018-09-15T10:58:41.225Z,102078.68
2018-09-15T10:59:45.350Z,102077.73
2018-09-15T11:00:49.492Z,102078.47
2018-09-15T11:01:53.658Z,102075.83
2018-09-15T11:02:57.838Z,102073.39
2018-09-15T11:04:02.372Z,102068.89
2018-09-15T11:05:06.566Z,102075.01
2018-09-15T11:06:10.735Z,102075.05
2018-09-15T11:07:15.623Z,102074.38
2018-09-15T11:08:19.808Z,102078.82
2018-09-15T11:09:24.117Z,102077.30
2018-09-15T11:10:28.222Z,102076.16
2018-09-15T11:11:32.385Z,102078.86
2018-09-15T11:12:36.608Z,102076.98
2018-09-15T11:13:40.831Z,102076.98
2018-09-15T11:14:45.143Z,102073.96
2018-09-15T11:15:49.259Z,102071.77
2018-09-15T11:16:53.443Z,102073.61
2018-09-15T11:17:57.878Z,102070.77
2018-09-15T11:19:02.349Z,102065.70
2018-09-15T11:20:06.688Z,102071.30
2018-09-15T11:21:10.889Z,102077.87
2018-09-15T11:22:15.030Z,102078.23
2018-09-15T11:23:19.218Z,102071.48
2018-09-15T11:24:23.383Z,102066.09
2018-09-15T11:25:27.636Z,102070.45
2018-09-15T11:26:31.805Z,102070.14
2018-09-15T11:27:35.942Z,102076.53
2018-09-15T11:28:40.363Z,102075.84
2018-09-15T11:29:44.462Z,102068.56
2018-09-15T11:30:48.754Z,102068.84
2018-09-15T11:31:52.911Z,102063.58
2018-09-15T11:32:57.651Z,102065.53
2018-09-15T11:34:02.022Z,102062.61
2018-09-15T11:35:06.442Z,102068.59
2018-09-15T11:36:10.665Z,102072.09
2018-09-15T11:37:14.784Z,102063.28
2018-09-15T11:38:18.963Z,102073.03
2018-09-15T11:39:23.126Z,102071.00
2018-09-15T11:40:27.254Z,102068.98
2018-09-15T11:41:31.561Z,102069.83
2018-09-15T11:42:35.977Z,102073.56
2018-09-15T11:43:40.185Z,102069.40
2018-09-15T11:44:44.340Z,102071.01
2018-09-15T11:45:48.728Z,102070.24
2018-09-15T11:46:52.887Z,102067.63
2018-09-15T11:47:57.087Z,102065.48
2018-09-15T11:49:01.202Z,102066.05
2018-09-15T11:50:05.549Z,102056.33
2018-09-15T11:51:09.650Z,102062.44
2018-09-15T11:52:13.989Z,102063.50
2018-09-15T11:53:18.254Z,102057.11
2018-09-15T11:54:22.426Z,102059.34
2018-09-15T11:55:26.684Z,102058.34
2018-09-15T11:56:30.967Z,102064.98
2018-09-15T11:57:35.095Z,102069.56
2018-09-15T11:58:39.426Z,102070.06
2018-09-15T11:59:43.566Z,102074.44
2018-09-15T12:00:55.022Z,102075.08
2018-09-15T12:01:59.190Z,102073.52
2018-09-15T12:03:03.361Z,102078.38
2018-09-15T12:04:07.665Z,102075.19
2018-09-15T12:05:11.831Z,102077.39
2018-09-15T12:06:15.992Z,102076.71
2018-09-15T12:07:20.147Z,102076.92
2018-09-15T12:08:24.306Z,102080.16
2018-09-15T12:09:28.570Z,102074.61
2018-09-15T12:10:32.720Z,102069.39
2018-09-15T12:11:37.025Z,102073.15
2018-09-15T12:12:41.189Z,102076.73
2018-09-15T12:13:45.343Z,102078.93